sensor_id;sensor_type;location;lat;lon;timestamp;P1;durP1;ratioP1;P2;durP2;ratioP2
66794;SDS011;53698;52.738;4.752;2022-08-19T00:02:02;15.07;;;12.43;;
66794;SDS011;53698;52.738;4.752;2022-08-19T00:04:28;17.10;;;13.43;;
66794;SDS011;53698;52.738;4.752;2022-08-19T00:06:55;19.83;;;13.07;;
66794;SDS011;53698;52.738;4.752;2022-08-19T00:09:22;20.10;;;14.65;;
66794;SDS011;53698;52.738;4.752;2022-08-19T00:11:48;17.60;;;13.63;;
66794;SDS011;53698;52.738;4.752;2022-08-19T00:14:15;17.98;;;14.25;;
66794;SDS011;53698;52.738;4.752;2022-08-19T00:16:42;20.60;;;13.90;;
66794;SDS011;53698;52.738;4.752;2022-08-19T00:19:10;18.45;;;13.60;;
66794;SDS011;53698;52.738;4.752;2022-08-19T00:21:35;19.23;;;13.75;;
66794;SDS011;53698;52.738;4.752;2022-08-19T00:24:04;20.15;;;14.35;;
66794;SDS011;53698;52.738;4.752;2022-08-19T00:26:31;20.15;;;13.88;;
66794;SDS011;53698;52.738;4.752;2022-08-19T00:28:57;19.42;;;14.15;;
66794;SDS011;53698;52.738;4.752;2022-08-19T00:31:22;14.35;;;12.38;;
66794;SDS011;53698;52.738;4.752;2022-08-19T00:33:47;18.90;;;14.23;;
66794;SDS011;53698;52.738;4.752;2022-08-19T00:36:15;16.33;;;12.30;;
66794;SDS011;53698;52.738;4.752;2022-08-19T00:38:41;15.52;;;12.63;;
66794;SDS011;53698;52.738;4.752;2022-08-19T00:41:08;16.70;;;13.00;;
66794;SDS011;53698;52.738;4.752;2022-08-19T00:44:06;13.90;;;12.30;;
66794;SDS011;53698;52.738;4.752;2022-08-19T00:46:35;18.15;;;12.90;;
66794;SDS011;53698;52.738;4.752;2022-08-19T00:49:03;14.25;;;12.68;;
66794;SDS011;53698;52.738;4.752;2022-08-19T00:51:34;23.15;;;15.13;;
66794;SDS011;53698;52.738;4.752;2022-08-19T00:54:00;18.05;;;14.05;;
66794;SDS011;53698;52.738;4.752;2022-08-19T00:56:26;19.23;;;14.73;;
66794;SDS011;53698;52.738;4.752;2022-08-19T00:58:53;16.05;;;13.70;;
66794;SDS011;53698;52.738;4.752;2022-08-19T01:01:21;20.15;;;13.45;;
66794;SDS011;53698;52.738;4.752;2022-08-19T01:03:46;15.90;;;12.55;;
66794;SDS011;53698;52.738;4.752;2022-08-19T01:06:12;18.52;;;13.25;;
66794;SDS011;53698;52.738;4.752;2022-08-19T01:08:37;15.35;;;12.52;;
66794;SDS011;53698;52.738;4.752;2022-08-19T01:11:02;13.75;;;12.30;;
66794;SDS011;53698;52.738;4.752;2022-08-19T01:13:35;19.15;;;12.57;;
66794;SDS011;53698;52.738;4.752;2022-08-19T01:16:05;13.80;;;11.45;;
66794;SDS011;53698;52.738;4.752;2022-08-19T01:18:35;15.73;;;12.65;;
66794;SDS011;53698;52.738;4.752;2022-08-19T01:23:51;19.00;;;14.00;;
66794;SDS011;53698;52.738;4.752;2022-08-19T01:26:18;15.68;;;13.20;;
66794;SDS011;53698;52.738;4.752;2022-08-19T01:28:47;15.40;;;13.75;;
66794;SDS011;53698;52.738;4.752;2022-08-19T01:31:16;19.10;;;14.43;;
66794;SDS011;53698;52.738;4.752;2022-08-19T01:33:43;18.02;;;15.38;;
66794;SDS011;53698;52.738;4.752;2022-08-19T01:36:21;19.13;;;15.27;;
66794;SDS011;53698;52.738;4.752;2022-08-19T01:38:51;18.83;;;15.38;;
66794;SDS011;53698;52.738;4.752;2022-08-19T01:41:17;21.55;;;16.95;;
66794;SDS011;53698;52.738;4.752;2022-08-19T01:43:42;22.75;;;18.20;;
66794;SDS011;53698;52.738;4.752;2022-08-19T01:46:08;18.80;;;15.63;;
66794;SDS011;53698;52.738;4.752;2022-08-19T01:48:39;19.95;;;15.80;;
66794;SDS011;53698;52.738;4.752;2022-08-19T01:51:07;19.45;;;14.80;;
66794;SDS011;53698;52.738;4.752;2022-08-19T01:53:34;16.48;;;14.77;;
66794;SDS011;53698;52.738;4.752;2022-08-19T01:56:00;20.13;;;14.88;;
66794;SDS011;53698;52.738;4.752;2022-08-19T01:58:27;22.13;;;16.48;;
66794;SDS011;53698;52.738;4.752;2022-08-19T02:01:02;23.67;;;18.75;;
66794;SDS011;53698;52.738;4.752;2022-08-19T02:03:28;28.73;;;20.17;;
66794;SDS011;53698;52.738;4.752;2022-08-19T02:05:55;24.10;;;18.58;;
66794;SDS011;53698;52.738;4.752;2022-08-19T02:08:22;23.58;;;19.75;;
66794;SDS011;53698;52.738;4.752;2022-08-19T02:10:48;28.05;;;19.77;;
66794;SDS011;53698;52.738;4.752;2022-08-19T02:13:15;26.58;;;20.85;;
66794;SDS011;53698;52.738;4.752;2022-08-19T02:15:40;25.98;;;19.77;;
66794;SDS011;53698;52.738;4.752;2022-08-19T02:18:06;31.70;;;21.67;;
66794;SDS011;53698;52.738;4.752;2022-08-19T02:20:33;23.33;;;19.15;;
66794;SDS011;53698;52.738;4.752;2022-08-19T02:22:58;26.70;;;20.73;;
66794;SDS011;53698;52.738;4.752;2022-08-19T02:25:26;25.45;;;20.27;;
66794;SDS011;53698;52.738;4.752;2022-08-19T02:27:52;25.13;;;20.55;;
66794;SDS011;53698;52.738;4.752;2022-08-19T02:30:20;28.50;;;21.05;;
66794;SDS011;53698;52.738;4.752;2022-08-19T02:32:46;26.25;;;20.92;;
66794;SDS011;53698;52.738;4.752;2022-08-19T02:35:14;29.88;;;22.13;;
66794;SDS011;53698;52.738;4.752;2022-08-19T02:37:40;25.50;;;19.40;;
66794;SDS011;53698;52.738;4.752;2022-08-19T02:40:25;30.25;;;21.88;;
66794;SDS011;53698;52.738;4.752;2022-08-19T02:42:50;29.10;;;22.75;;
66794;SDS011;53698;52.738;4.752;2022-08-19T02:45:16;32.22;;;24.17;;
66794;SDS011;53698;52.738;4.752;2022-08-19T02:47:41;32.70;;;23.02;;
66794;SDS011;53698;52.738;4.752;2022-08-19T02:50:07;33.90;;;24.08;;
66794;SDS011;53698;52.738;4.752;2022-08-19T02:52:34;37.92;;;25.02;;
66794;SDS011;53698;52.738;4.752;2022-08-19T02:54:59;30.73;;;23.55;;
66794;SDS011;53698;52.738;4.752;2022-08-19T02:57:26;29.40;;;23.50;;
66794;SDS011;53698;52.738;4.752;2022-08-19T02:59:53;33.17;;;23.92;;
66794;SDS011;53698;52.738;4.752;2022-08-19T03:02:18;37.50;;;25.70;;
66794;SDS011;53698;52.738;4.752;2022-08-19T03:04:44;36.00;;;26.83;;
66794;SDS011;53698;52.738;4.752;2022-08-19T03:07:13;34.53;;;25.17;;
66794;SDS011;53698;52.738;4.752;2022-08-19T03:09:40;34.67;;;25.23;;
66794;SDS011;53698;52.738;4.752;2022-08-19T03:12:07;37.20;;;25.92;;
66794;SDS011;53698;52.738;4.752;2022-08-19T03:14:34;33.38;;;24.13;;
66794;SDS011;53698;52.738;4.752;2022-08-19T03:17:00;40.53;;;29.52;;
66794;SDS011;53698;52.738;4.752;2022-08-19T03:19:26;36.42;;;27.05;;
66794;SDS011;53698;52.738;4.752;2022-08-19T03:21:52;37.08;;;26.52;;
66794;SDS011;53698;52.738;4.752;2022-08-19T03:24:18;35.38;;;26.38;;
66794;SDS011;53698;52.738;4.752;2022-08-19T03:26:49;35.03;;;25.58;;
66794;SDS011;53698;52.738;4.752;2022-08-19T03:29:16;40.85;;;27.05;;
66794;SDS011;53698;52.738;4.752;2022-08-19T03:31:43;39.28;;;29.27;;
66794;SDS011;53698;52.738;4.752;2022-08-19T03:34:10;34.85;;;27.35;;
66794;SDS011;53698;52.738;4.752;2022-08-19T03:36:37;44.90;;;30.10;;
66794;SDS011;53698;52.738;4.752;2022-08-19T03:39:03;39.15;;;27.60;;
66794;SDS011;53698;52.738;4.752;2022-08-19T03:41:39;38.67;;;27.58;;
66794;SDS011;53698;52.738;4.752;2022-08-19T03:44:06;39.22;;;27.92;;
66794;SDS011;53698;52.738;4.752;2022-08-19T03:46:33;41.15;;;28.70;;
66794;SDS011;53698;52.738;4.752;2022-08-19T03:49:00;40.65;;;28.65;;
66794;SDS011;53698;52.738;4.752;2022-08-19T03:51:34;45.55;;;30.73;;
66794;SDS011;53698;52.738;4.752;2022-08-19T03:54:03;43.00;;;30.70;;
66794;SDS011;53698;52.738;4.752;2022-08-19T03:56:32;40.60;;;27.45;;
66794;SDS011;53698;52.738;4.752;2022-08-19T03:59:00;44.75;;;31.08;;
66794;SDS011;53698;52.738;4.752;2022-08-19T04:01:26;46.88;;;31.58;;
66794;SDS011;53698;52.738;4.752;2022-08-19T04:03:53;46.10;;;31.38;;
66794;SDS011;53698;52.738;4.752;2022-08-19T04:06:21;50.08;;;30.83;;
66794;SDS011;53698;52.738;4.752;2022-08-19T04:08:51;42.58;;;29.55;;
66794;SDS011;53698;52.738;4.752;2022-08-19T04:11:26;40.40;;;28.48;;
66794;SDS011;53698;52.738;4.752;2022-08-19T04:13:54;40.75;;;28.38;;
66794;SDS011;53698;52.738;4.752;2022-08-19T04:16:21;44.58;;;29.48;;
66794;SDS011;53698;52.738;4.752;2022-08-19T04:18:48;45.10;;;30.48;;
66794;SDS011;53698;52.738;4.752;2022-08-19T04:21:16;47.47;;;31.67;;
66794;SDS011;53698;52.738;4.752;2022-08-19T04:23:44;42.03;;;29.33;;
66794;SDS011;53698;52.738;4.752;2022-08-19T04:26:43;40.30;;;27.60;;
66794;SDS011;53698;52.738;4.752;2022-08-19T04:29:04;42.45;;;29.50;;
66794;SDS011;53698;52.738;4.752;2022-08-19T04:31:32;42.10;;;28.48;;
66794;SDS011;53698;52.738;4.752;2022-08-19T04:34:01;41.72;;;29.65;;
66794;SDS011;53698;52.738;4.752;2022-08-19T04:36:30;43.95;;;28.30;;
66794;SDS011;53698;52.738;4.752;2022-08-19T04:38:59;38.10;;;27.73;;
66794;SDS011;53698;52.738;4.752;2022-08-19T04:41:30;47.70;;;32.50;;
66794;SDS011;53698;52.738;4.752;2022-08-19T04:44:14;47.47;;;33.30;;
66794;SDS011;53698;52.738;4.752;2022-08-19T04:46:43;53.35;;;35.47;;
66794;SDS011;53698;52.738;4.752;2022-08-19T04:49:09;63.53;;;35.33;;
66794;SDS011;53698;52.738;4.752;2022-08-19T04:51:34;54.15;;;35.60;;
66794;SDS011;53698;52.738;4.752;2022-08-19T04:54:03;51.30;;;33.60;;
66794;SDS011;53698;52.738;4.752;2022-08-19T04:56:29;49.67;;;34.43;;
66794;SDS011;53698;52.738;4.752;2022-08-19T04:58:55;62.53;;;40.08;;
66794;SDS011;53698;52.738;4.752;2022-08-19T05:01:22;60.08;;;40.28;;
66794;SDS011;53698;52.738;4.752;2022-08-19T05:03:49;65.35;;;40.28;;
66794;SDS011;53698;52.738;4.752;2022-08-19T05:06:15;59.10;;;38.67;;
66794;SDS011;53698;52.738;4.752;2022-08-19T05:08:43;69.38;;;41.72;;
66794;SDS011;53698;52.738;4.752;2022-08-19T05:11:10;68.50;;;40.35;;
66794;SDS011;53698;52.738;4.752;2022-08-19T05:13:37;68.65;;;41.70;;
66794;SDS011;53698;52.738;4.752;2022-08-19T05:16:02;69.13;;;41.63;;
66794;SDS011;53698;52.738;4.752;2022-08-19T05:18:28;67.03;;;42.38;;
66794;SDS011;53698;52.738;4.752;2022-08-19T05:21:12;68.70;;;42.92;;
66794;SDS011;53698;52.738;4.752;2022-08-19T05:23:58;72.28;;;42.90;;
66794;SDS011;53698;52.738;4.752;2022-08-19T05:26:24;63.92;;;42.05;;
66794;SDS011;53698;52.738;4.752;2022-08-19T05:28:51;64.97;;;41.67;;
66794;SDS011;53698;52.738;4.752;2022-08-19T05:31:18;73.53;;;42.13;;
66794;SDS011;53698;52.738;4.752;2022-08-19T05:33:43;69.57;;;43.40;;
66794;SDS011;53698;52.738;4.752;2022-08-19T05:36:09;67.47;;;44.65;;
66794;SDS011;53698;52.738;4.752;2022-08-19T05:38:34;75.82;;;47.33;;
66794;SDS011;53698;52.738;4.752;2022-08-19T05:41:01;76.80;;;45.67;;
66794;SDS011;53698;52.738;4.752;2022-08-19T05:43:31;81.35;;;47.55;;
66794;SDS011;53698;52.738;4.752;2022-08-19T05:45:57;71.65;;;45.35;;
66794;SDS011;53698;52.738;4.752;2022-08-19T05:48:23;77.47;;;47.88;;
66794;SDS011;53698;52.738;4.752;2022-08-19T05:50:48;67.07;;;43.10;;
66794;SDS011;53698;52.738;4.752;2022-08-19T05:53:15;68.68;;;44.22;;
66794;SDS011;53698;52.738;4.752;2022-08-19T05:55:41;62.45;;;41.78;;
66794;SDS011;53698;52.738;4.752;2022-08-19T05:58:07;69.28;;;43.90;;
66794;SDS011;53698;52.738;4.752;2022-08-19T06:00:33;71.50;;;43.53;;
66794;SDS011;53698;52.738;4.752;2022-08-19T06:02:59;68.85;;;43.08;;
66794;SDS011;53698;52.738;4.752;2022-08-19T06:05:28;72.78;;;44.00;;
66794;SDS011;53698;52.738;4.752;2022-08-19T06:07:54;68.95;;;43.13;;
66794;SDS011;53698;52.738;4.752;2022-08-19T06:10:20;64.65;;;39.95;;
66794;SDS011;53698;52.738;4.752;2022-08-19T06:12:46;65.13;;;41.17;;
66794;SDS011;53698;52.738;4.752;2022-08-19T06:15:13;59.65;;;38.22;;
66794;SDS011;53698;52.738;4.752;2022-08-19T06:17:38;58.55;;;37.85;;
66794;SDS011;53698;52.738;4.752;2022-08-19T06:20:05;56.53;;;34.08;;
66794;SDS011;53698;52.738;4.752;2022-08-19T06:22:36;52.75;;;33.85;;
66794;SDS011;53698;52.738;4.752;2022-08-19T06:25:03;51.83;;;30.08;;
66794;SDS011;53698;52.738;4.752;2022-08-19T06:27:28;41.42;;;27.75;;
66794;SDS011;53698;52.738;4.752;2022-08-19T06:29:55;40.17;;;26.42;;
66794;SDS011;53698;52.738;4.752;2022-08-19T06:32:21;39.50;;;25.17;;
66794;SDS011;53698;52.738;4.752;2022-08-19T06:34:46;40.10;;;23.60;;
66794;SDS011;53698;52.738;4.752;2022-08-19T06:37:11;37.88;;;22.70;;
66794;SDS011;53698;52.738;4.752;2022-08-19T06:39:37;35.30;;;22.00;;
66794;SDS011;53698;52.738;4.752;2022-08-19T06:42:05;29.45;;;21.02;;
66794;SDS011;53698;52.738;4.752;2022-08-19T06:44:34;36.42;;;20.50;;
66794;SDS011;53698;52.738;4.752;2022-08-19T06:47:03;25.95;;;19.15;;
66794;SDS011;53698;52.738;4.752;2022-08-19T06:49:29;32.78;;;17.98;;
66794;SDS011;53698;52.738;4.752;2022-08-19T06:51:58;24.80;;;16.38;;
66794;SDS011;53698;52.738;4.752;2022-08-19T06:54:24;19.27;;;11.77;;
66794;SDS011;53698;52.738;4.752;2022-08-19T06:56:50;19.58;;;10.43;;
66794;SDS011;53698;52.738;4.752;2022-08-19T06:59:17;21.70;;;9.98;;
66794;SDS011;53698;52.738;4.752;2022-08-19T07:01:49;16.52;;;10.18;;
66794;SDS011;53698;52.738;4.752;2022-08-19T07:04:16;27.83;;;11.88;;
66794;SDS011;53698;52.738;4.752;2022-08-19T07:06:44;20.58;;;10.75;;
66794;SDS011;53698;52.738;4.752;2022-08-19T07:09:12;18.20;;;10.45;;
66794;SDS011;53698;52.738;4.752;2022-08-19T07:11:39;25.70;;;11.32;;
66794;SDS011;53698;52.738;4.752;2022-08-19T07:14:10;27.15;;;11.30;;
66794;SDS011;53698;52.738;4.752;2022-08-19T07:16:35;26.63;;;10.57;;
66794;SDS011;53698;52.738;4.752;2022-08-19T07:19:00;26.27;;;10.45;;
66794;SDS011;53698;52.738;4.752;2022-08-19T07:21:28;21.20;;;10.20;;
66794;SDS011;53698;52.738;4.752;2022-08-19T07:23:54;22.42;;;9.85;;
66794;SDS011;53698;52.738;4.752;2022-08-19T07:26:28;20.63;;;9.77;;
66794;SDS011;53698;52.738;4.752;2022-08-19T07:28:56;21.63;;;10.35;;
66794;SDS011;53698;52.738;4.752;2022-08-19T07:31:23;24.15;;;9.35;;
66794;SDS011;53698;52.738;4.752;2022-08-19T07:33:50;26.25;;;9.40;;
66794;SDS011;53698;52.738;4.752;2022-08-19T07:36:19;16.83;;;8.95;;
66794;SDS011;53698;52.738;4.752;2022-08-19T07:38:46;15.05;;;8.23;;
66794;SDS011;53698;52.738;4.752;2022-08-19T07:41:15;22.75;;;9.13;;
66794;SDS011;53698;52.738;4.752;2022-08-19T07:43:42;20.60;;;8.43;;
66794;SDS011;53698;52.738;4.752;2022-08-19T07:46:08;15.88;;;7.75;;
66794;SDS011;53698;52.738;4.752;2022-08-19T07:48:34;14.60;;;7.57;;
66794;SDS011;53698;52.738;4.752;2022-08-19T07:51:03;15.07;;;8.68;;
66794;SDS011;53698;52.738;4.752;2022-08-19T07:53:31;14.85;;;8.05;;
66794;SDS011;53698;52.738;4.752;2022-08-19T07:55:58;12.57;;;8.13;;
66794;SDS011;53698;52.738;4.752;2022-08-19T07:58:29;21.60;;;8.15;;
66794;SDS011;53698;52.738;4.752;2022-08-19T08:00:59;16.08;;;7.93;;
66794;SDS011;53698;52.738;4.752;2022-08-19T08:03:25;12.40;;;7.60;;
66794;SDS011;53698;52.738;4.752;2022-08-19T08:06:11;13.38;;;7.82;;
66794;SDS011;53698;52.738;4.752;2022-08-19T08:08:57;17.67;;;8.18;;
66794;SDS011;53698;52.738;4.752;2022-08-19T08:11:39;18.70;;;8.13;;
66794;SDS011;53698;52.738;4.752;2022-08-19T08:14:07;17.58;;;7.68;;
66794;SDS011;53698;52.738;4.752;2022-08-19T08:16:34;16.65;;;7.70;;
66794;SDS011;53698;52.738;4.752;2022-08-19T08:19:02;20.77;;;7.97;;
66794;SDS011;53698;52.738;4.752;2022-08-19T08:21:30;15.90;;;7.43;;
66794;SDS011;53698;52.738;4.752;2022-08-19T08:23:56;16.95;;;7.70;;
66794;SDS011;53698;52.738;4.752;2022-08-19T08:26:21;11.13;;;6.75;;
66794;SDS011;53698;52.738;4.752;2022-08-19T08:28:47;13.55;;;7.38;;
66794;SDS011;53698;52.738;4.752;2022-08-19T08:31:13;10.80;;;6.88;;
66794;SDS011;53698;52.738;4.752;2022-08-19T08:33:39;12.15;;;7.13;;
66794;SDS011;53698;52.738;4.752;2022-08-19T08:36:07;17.90;;;6.70;;
66794;SDS011;53698;52.738;4.752;2022-08-19T08:38:33;16.17;;;7.13;;
66794;SDS011;53698;52.738;4.752;2022-08-19T08:41:01;12.75;;;6.15;;
66794;SDS011;53698;52.738;4.752;2022-08-19T08:43:48;19.23;;;6.57;;
66794;SDS011;53698;52.738;4.752;2022-08-19T08:52:02;16.25;;;6.40;;
66794;SDS011;53698;52.738;4.752;2022-08-19T08:54:33;12.70;;;6.90;;
66794;SDS011;53698;52.738;4.752;2022-08-19T08:57:12;11.60;;;6.43;;
66794;SDS011;53698;52.738;4.752;2022-08-19T08:59:43;11.10;;;6.00;;
66794;SDS011;53698;52.738;4.752;2022-08-19T09:02:16;10.82;;;6.25;;
66794;SDS011;53698;52.738;4.752;2022-08-19T09:04:42;12.43;;;6.75;;
66794;SDS011;53698;52.738;4.752;2022-08-19T09:07:14;12.25;;;6.00;;
66794;SDS011;53698;52.738;4.752;2022-08-19T09:09:46;11.82;;;6.18;;
66794;SDS011;53698;52.738;4.752;2022-08-19T09:12:21;11.70;;;6.03;;
66794;SDS011;53698;52.738;4.752;2022-08-19T09:14:53;9.23;;;5.32;;
66794;SDS011;53698;52.738;4.752;2022-08-19T09:17:24;13.00;;;5.90;;
66794;SDS011;53698;52.738;4.752;2022-08-19T09:22:24;12.02;;;5.65;;
66794;SDS011;53698;52.738;4.752;2022-08-19T09:24:50;11.75;;;6.40;;
66794;SDS011;53698;52.738;4.752;2022-08-19T09:27:19;9.98;;;6.20;;
66794;SDS011;53698;52.738;4.752;2022-08-19T09:29:46;8.77;;;6.43;;
66794;SDS011;53698;52.738;4.752;2022-08-19T09:32:13;12.13;;;6.43;;
66794;SDS011;53698;52.738;4.752;2022-08-19T09:34:39;9.57;;;6.00;;
66794;SDS011;53698;52.738;4.752;2022-08-19T09:37:04;12.75;;;6.38;;
66794;SDS011;53698;52.738;4.752;2022-08-19T09:39:31;9.43;;;5.45;;
66794;SDS011;53698;52.738;4.752;2022-08-19T09:41:56;15.52;;;5.60;;
66794;SDS011;53698;52.738;4.752;2022-08-19T09:44:21;11.82;;;5.85;;
66794;SDS011;53698;52.738;4.752;2022-08-19T09:46:47;10.82;;;5.50;;
66794;SDS011;53698;52.738;4.752;2022-08-19T09:49:12;9.23;;;6.05;;
66794;SDS011;53698;52.738;4.752;2022-08-19T09:51:38;13.20;;;5.72;;
66794;SDS011;53698;52.738;4.752;2022-08-19T09:54:03;9.85;;;6.10;;
66794;SDS011;53698;52.738;4.752;2022-08-19T09:56:29;10.35;;;6.20;;
66794;SDS011;53698;52.738;4.752;2022-08-19T09:58:57;13.40;;;6.00;;
66794;SDS011;53698;52.738;4.752;2022-08-19T10:01:25;9.57;;;5.93;;
66794;SDS011;53698;52.738;4.752;2022-08-19T10:03:54;13.25;;;5.80;;
66794;SDS011;53698;52.738;4.752;2022-08-19T10:06:23;10.60;;;6.15;;
66794;SDS011;53698;52.738;4.752;2022-08-19T10:08:50;11.95;;;5.85;;
66794;SDS011;53698;52.738;4.752;2022-08-19T10:11:18;13.45;;;6.35;;
66794;SDS011;53698;52.738;4.752;2022-08-19T10:13:44;9.73;;;6.13;;
66794;SDS011;53698;52.738;4.752;2022-08-19T10:16:12;11.20;;;6.45;;
66794;SDS011;53698;52.738;4.752;2022-08-19T10:18:40;13.63;;;5.97;;
66794;SDS011;53698;52.738;4.752;2022-08-19T10:21:11;11.30;;;7.07;;
66794;SDS011;53698;52.738;4.752;2022-08-19T10:23:42;8.50;;;5.85;;
66794;SDS011;53698;52.738;4.752;2022-08-19T10:26:10;13.07;;;6.30;;
66794;SDS011;53698;52.738;4.752;2022-08-19T10:28:37;9.38;;;5.97;;
66794;SDS011;53698;52.738;4.752;2022-08-19T10:31:03;7.63;;;5.22;;
66794;SDS011;53698;52.738;4.752;2022-08-19T10:33:33;10.13;;;5.95;;
66794;SDS011;53698;52.738;4.752;2022-08-19T10:36:00;9.10;;;5.65;;
66794;SDS011;53698;52.738;4.752;2022-08-19T10:38:27;13.23;;;5.88;;
66794;SDS011;53698;52.738;4.752;2022-08-19T10:40:53;9.93;;;5.88;;
66794;SDS011;53698;52.738;4.752;2022-08-19T10:43:19;8.80;;;5.32;;
66794;SDS011;53698;52.738;4.752;2022-08-19T10:45:48;10.00;;;5.40;;
66794;SDS011;53698;52.738;4.752;2022-08-19T10:48:17;8.55;;;5.18;;
66794;SDS011;53698;52.738;4.752;2022-08-19T10:50:42;11.63;;;4.57;;
66794;SDS011;53698;52.738;4.752;2022-08-19T10:53:26;7.88;;;4.80;;
66794;SDS011;53698;52.738;4.752;2022-08-19T10:55:51;10.00;;;5.30;;
66794;SDS011;53698;52.738;4.752;2022-08-19T10:58:35;8.45;;;4.85;;
66794;SDS011;53698;52.738;4.752;2022-08-19T11:01:00;12.75;;;6.28;;
66794;SDS011;53698;52.738;4.752;2022-08-19T11:03:26;7.22;;;4.80;;
66794;SDS011;53698;52.738;4.752;2022-08-19T11:05:59;8.88;;;5.05;;
66794;SDS011;53698;52.738;4.752;2022-08-19T11:08:26;8.70;;;5.13;;
66794;SDS011;53698;52.738;4.752;2022-08-19T11:10:52;6.40;;;4.30;;
66794;SDS011;53698;52.738;4.752;2022-08-19T11:13:21;9.88;;;4.95;;
66794;SDS011;53698;52.738;4.752;2022-08-19T11:15:55;9.00;;;5.05;;
66794;SDS011;53698;52.738;4.752;2022-08-19T11:18:22;6.78;;;4.57;;
66794;SDS011;53698;52.738;4.752;2022-08-19T11:20:47;9.10;;;4.70;;
66794;SDS011;53698;52.738;4.752;2022-08-19T11:23:13;7.20;;;4.63;;
66794;SDS011;53698;52.738;4.752;2022-08-19T11:25:38;7.50;;;5.03;;
66794;SDS011;53698;52.738;4.752;2022-08-19T11:28:04;8.35;;;5.90;;
66794;SDS011;53698;52.738;4.752;2022-08-19T11:30:30;8.68;;;5.72;;
66794;SDS011;53698;52.738;4.752;2022-08-19T11:32:55;13.65;;;5.25;;
66794;SDS011;53698;52.738;4.752;2022-08-19T11:35:20;10.32;;;6.00;;
66794;SDS011;53698;52.738;4.752;2022-08-19T11:37:48;10.65;;;5.88;;
66794;SDS011;53698;52.738;4.752;2022-08-19T11:40:13;7.75;;;5.57;;
66794;SDS011;53698;52.738;4.752;2022-08-19T11:42:39;8.30;;;5.05;;
66794;SDS011;53698;52.738;4.752;2022-08-19T11:45:20;11.82;;;5.43;;
66794;SDS011;53698;52.738;4.752;2022-08-19T11:47:46;8.73;;;4.78;;
66794;SDS011;53698;52.738;4.752;2022-08-19T11:50:12;9.43;;;5.00;;
66794;SDS011;53698;52.738;4.752;2022-08-19T11:52:37;8.70;;;5.82;;
66794;SDS011;53698;52.738;4.752;2022-08-19T11:55:03;9.35;;;5.38;;
66794;SDS011;53698;52.738;4.752;2022-08-19T11:57:29;10.13;;;4.80;;
66794;SDS011;53698;52.738;4.752;2022-08-19T11:59:54;6.20;;;3.97;;
66794;SDS011;53698;52.738;4.752;2022-08-19T12:02:19;6.35;;;3.70;;
66794;SDS011;53698;52.738;4.752;2022-08-19T12:04:45;6.75;;;3.83;;
66794;SDS011;53698;52.738;4.752;2022-08-19T12:07:10;5.95;;;3.75;;
66794;SDS011;53698;52.738;4.752;2022-08-19T12:09:35;10.98;;;4.65;;
66794;SDS011;53698;52.738;4.752;2022-08-19T12:12:01;6.63;;;3.97;;
66794;SDS011;53698;52.738;4.752;2022-08-19T12:14:29;8.07;;;4.63;;
66794;SDS011;53698;52.738;4.752;2022-08-19T12:16:55;5.60;;;3.47;;
66794;SDS011;53698;52.738;4.752;2022-08-19T12:19:21;8.85;;;5.15;;
66794;SDS011;53698;52.738;4.752;2022-08-19T12:21:46;7.07;;;3.85;;
66794;SDS011;53698;52.738;4.752;2022-08-19T12:24:12;6.35;;;4.38;;
66794;SDS011;53698;52.738;4.752;2022-08-19T12:26:38;7.18;;;3.95;;
66794;SDS011;53698;52.738;4.752;2022-08-19T12:29:03;5.97;;;3.47;;
66794;SDS011;53698;52.738;4.752;2022-08-19T12:31:29;7.95;;;3.95;;
66794;SDS011;53698;52.738;4.752;2022-08-19T12:33:55;5.45;;;4.18;;
66794;SDS011;53698;52.738;4.752;2022-08-19T12:36:20;8.18;;;3.50;;
66794;SDS011;53698;52.738;4.752;2022-08-19T12:38:47;8.07;;;4.95;;
66794;SDS011;53698;52.738;4.752;2022-08-19T12:41:17;9.63;;;4.90;;
66794;SDS011;53698;52.738;4.752;2022-08-19T12:43:43;10.45;;;4.60;;
66794;SDS011;53698;52.738;4.752;2022-08-19T12:46:09;7.70;;;4.82;;
66794;SDS011;53698;52.738;4.752;2022-08-19T12:48:36;7.88;;;4.07;;
66794;SDS011;53698;52.738;4.752;2022-08-19T12:51:06;7.18;;;4.55;;
66794;SDS011;53698;52.738;4.752;2022-08-19T12:53:33;9.73;;;4.05;;
66794;SDS011;53698;52.738;4.752;2022-08-19T12:55:58;8.02;;;3.75;;
66794;SDS011;53698;52.738;4.752;2022-08-19T12:58:25;5.80;;;4.47;;
66794;SDS011;53698;52.738;4.752;2022-08-19T13:00:51;10.98;;;4.70;;
66794;SDS011;53698;52.738;4.752;2022-08-19T13:03:17;7.10;;;4.22;;
66794;SDS011;53698;52.738;4.752;2022-08-19T13:05:42;5.90;;;3.80;;
66794;SDS011;53698;52.738;4.752;2022-08-19T13:08:08;6.25;;;4.07;;
66794;SDS011;53698;52.738;4.752;2022-08-19T13:10:34;7.95;;;4.68;;
66794;SDS011;53698;52.738;4.752;2022-08-19T13:13:02;8.40;;;4.45;;
66794;SDS011;53698;52.738;4.752;2022-08-19T13:15:32;7.93;;;3.55;;
66794;SDS011;53698;52.738;4.752;2022-08-19T13:17:59;5.87;;;3.73;;
66794;SDS011;53698;52.738;4.752;2022-08-19T13:20:25;4.40;;;3.35;;
66794;SDS011;53698;52.738;4.752;2022-08-19T13:22:51;8.18;;;3.22;;
66794;SDS011;53698;52.738;4.752;2022-08-19T13:25:17;4.32;;;2.72;;
66794;SDS011;53698;52.738;4.752;2022-08-19T13:27:45;7.90;;;3.65;;
66794;SDS011;53698;52.738;4.752;2022-08-19T13:30:12;5.80;;;2.42;;
66794;SDS011;53698;52.738;4.752;2022-08-19T13:32:58;6.68;;;3.88;;
66794;SDS011;53698;52.738;4.752;2022-08-19T13:35:36;5.40;;;3.60;;
66794;SDS011;53698;52.738;4.752;2022-08-19T13:38:03;3.50;;;2.60;;
66794;SDS011;53698;52.738;4.752;2022-08-19T13:40:30;5.07;;;2.83;;
66794;SDS011;53698;52.738;4.752;2022-08-19T13:42:58;5.43;;;2.55;;
66794;SDS011;53698;52.738;4.752;2022-08-19T13:45:24;4.32;;;2.10;;
66794;SDS011;53698;52.738;4.752;2022-08-19T13:47:52;5.95;;;1.90;;
66794;SDS011;53698;52.738;4.752;2022-08-19T13:50:20;4.15;;;1.88;;
66794;SDS011;53698;52.738;4.752;2022-08-19T13:52:47;2.85;;;2.00;;
66794;SDS011;53698;52.738;4.752;2022-08-19T13:55:13;4.18;;;1.67;;
66794;SDS011;53698;52.738;4.752;2022-08-19T13:57:40;2.75;;;1.77;;
66794;SDS011;53698;52.738;4.752;2022-08-19T14:00:14;4.65;;;2.75;;
66794;SDS011;53698;52.738;4.752;2022-08-19T14:02:45;4.55;;;2.33;;
66794;SDS011;53698;52.738;4.752;2022-08-19T14:05:13;4.93;;;1.98;;
66794;SDS011;53698;52.738;4.752;2022-08-19T14:07:40;5.38;;;1.70;;
66794;SDS011;53698;52.738;4.752;2022-08-19T14:10:08;4.63;;;2.05;;
66794;SDS011;53698;52.738;4.752;2022-08-19T14:12:35;5.13;;;1.88;;
66794;SDS011;53698;52.738;4.752;2022-08-19T14:15:02;4.82;;;1.92;;
66794;SDS011;53698;52.738;4.752;2022-08-19T14:17:28;3.20;;;1.20;;
66794;SDS011;53698;52.738;4.752;2022-08-19T14:19:57;1.65;;;1.00;;
66794;SDS011;53698;52.738;4.752;2022-08-19T14:22:29;2.42;;;1.30;;
66794;SDS011;53698;52.738;4.752;2022-08-19T14:24:56;3.08;;;1.10;;
66794;SDS011;53698;52.738;4.752;2022-08-19T14:27:22;0.95;;;0.85;;
66794;SDS011;53698;52.738;4.752;2022-08-19T14:29:50;5.90;;;1.40;;
66794;SDS011;53698;52.738;4.752;2022-08-19T14:32:16;5.90;;;1.65;;
66794;SDS011;53698;52.738;4.752;2022-08-19T14:34:41;3.13;;;1.40;;
66794;SDS011;53698;52.738;4.752;2022-08-19T14:37:07;2.67;;;1.65;;
66794;SDS011;53698;52.738;4.752;2022-08-19T14:39:34;3.20;;;1.45;;
66794;SDS011;53698;52.738;4.752;2022-08-19T14:41:59;4.10;;;1.70;;
66794;SDS011;53698;52.738;4.752;2022-08-19T14:44:25;4.97;;;1.83;;
66794;SDS011;53698;52.738;4.752;2022-08-19T14:46:50;1.98;;;1.30;;